Time,TemperatureF,DewpointF,PressureIn,WindDirection,WindDirectionDegrees,WindSpeedMPH,WindSpeedGustMPH,Humidity,HourlyPrecipIn,Conditions,Clouds,dailyrainin,SoftwareType,DateUTC
2013-09-04 00:12:00,68.0,65.0,30.04,ESE,102,0.0,0.0,89,0.00,,,0.00,,2013-09-04 05:12:00,
2013-09-04 00:23:00,68.0,65.0,30.04,ESE,102,0.0,0.0,89,0.00,,,0.00,,2013-09-04 05:23:00,
2013-09-04 00:43:00,67.0,64.0,30.04,East,101,0.0,0.0,90,0.00,,,0.00,,2013-09-04 05:43:00,
2013-09-04 00:52:00,67.0,64.0,30.04,ESE,102,0.0,0.0,90,0.00,,,0.00,,2013-09-04 05:52:00,
2013-09-04 01:12:00,67.0,64.0,30.04,ESE,102,0.0,0.0,91,0.00,,,0.00,,2013-09-04 06:12:00,
2013-09-04 01:22:00,67.0,64.0,30.04,East,101,0.0,0.0,91,0.00,,,0.00,,2013-09-04 06:22:00,
2013-09-04 01:42:00,66.0,63.0,30.04,ESE,102,0.0,0.0,91,0.00,,,0.00,,2013-09-04 06:42:00,
2013-09-04 01:52:00,66.0,63.0,30.04,ESE,103,0.0,0.0,91,0.00,,,0.00,,2013-09-04 06:52:00,
2013-09-04 02:11:00,66.0,64.0,30.04,ESE,103,0.0,0.0,92,0.00,,,0.00,,2013-09-04 07:11:00,
2013-09-04 02:22:00,65.0,63.0,30.03,ESE,103,0.0,0.0,93,0.00,,,0.00,,2013-09-04 07:22:00,
2013-09-04 02:42:00,65.0,63.0,30.03,ESE,103,0.0,0.0,93,0.00,,,0.00,,2013-09-04 07:42:00,
2013-09-04 02:52:00,65.0,63.0,30.03,ESE,103,0.0,0.0,94,0.00,,,0.00,,2013-09-04 07:52:00,
2013-09-04 03:12:00,65.0,63.0,30.03,ESE,103,0.0,0.0,94,0.00,,,0.00,,2013-09-04 08:12:00,
2013-09-04 03:22:00,64.0,62.0,30.03,ESE,103,0.0,0.0,94,0.00,,,0.00,,2013-09-04 08:22:00,
2013-09-04 03:43:00,64.0,62.0,30.04,ESE,103,0.0,0.0,94,0.00,,,0.00,,2013-09-04 08:43:00,
2013-09-04 03:52:00,64.0,63.0,30.03,ESE,103,0.0,0.0,95,0.00,,,0.00,,2013-09-04 08:52:00,
2013-09-04 04:11:00,64.0,62.0,30.03,ESE,103,0.0,0.0,94,0.00,,,0.00,,2013-09-04 09:11:00,
2013-09-04 04:22:00,64.0,63.0,30.03,ESE,103,0.0,0.0,95,0.00,,,0.00,,2013-09-04 09:22:00,
2013-09-04 04:43:00,64.0,63.0,30.04,ESE,103,0.0,0.0,95,0.00,,,0.00,,2013-09-04 09:43:00,
2013-09-04 04:53:00,63.0,62.0,30.04,ESE,103,0.0,0.0,95,0.00,,,0.00,,2013-09-04 09:53:00,
2013-09-04 05:12:00,63.0,62.0,30.05,ESE,103,0.0,0.0,95,0.00,,,0.00,,2013-09-04 10:12:00,
2013-09-04 05:23:00,63.0,62.0,30.05,ESE,103,0.0,0.0,95,0.00,,,0.00,,2013-09-04 10:23:00,
2013-09-04 05:42:00,63.0,62.0,30.05,ESE,103,0.0,0.0,95,0.00,,,0.00,,2013-09-04 10:42:00,
2013-09-04 05:52:00,63.0,62.0,30.06,ESE,103,0.0,0.0,96,0.00,,,0.00,,2013-09-04 10:52:00,
2013-09-04 06:12:00,63.0,62.0,30.06,ESE,103,0.0,0.0,96,0.00,,,0.00,,2013-09-04 11:12:00,
2013-09-04 06:22:00,63.0,62.0,30.07,ESE,103,0.0,0.0,96,0.00,,,0.00,,2013-09-04 11:22:00,
2013-09-04 06:52:00,62.0,61.0,30.08,ESE,103,0.0,0.0,96,0.00,,,0.00,,2013-09-04 11:52:00,
2013-09-04 07:12:00,62.0,61.0,30.09,ESE,103,0.0,0.0,96,0.00,,,0.00,,2013-09-04 12:12:00,
2013-09-04 07:21:00,62.0,61.0,30.09,ESE,103,0.0,0.0,96,0.00,,,0.00,,2013-09-04 12:21:00,
2013-09-04 07:42:00,63.0,62.0,30.10,ESE,103,0.0,0.0,97,0.00,,,0.00,,2013-09-04 12:42:00,
2013-09-04 07:52:00,63.0,62.0,30.10,ESE,103,0.0,0.0,97,0.00,,,0.00,,2013-09-04 12:52:00,
2013-09-04 08:12:00,64.0,63.0,30.10,East,81,0.0,1.0,97,0.00,,,0.00,,2013-09-04 13:12:00,
2013-09-04 08:22:00,66.0,65.0,30.11,ENE,77,0.0,1.0,96,0.00,,,0.00,,2013-09-04 13:22:00,
2013-09-04 08:52:00,68.0,65.0,30.11,ENE,70,0.0,3.0,91,0.00,,,0.00,,2013-09-04 13:52:00,
2013-09-04 09:11:00,70.0,66.0,30.12,NE,56,1.0,4.0,87,0.00,,,0.00,,2013-09-04 14:11:00,
2013-09-04 09:21:00,71.0,67.0,30.12,ENE,70,0.0,3.0,86,0.00,,,0.00,,2013-09-04 14:21:00,
2013-09-04 09:42:00,73.0,68.0,30.13,ENE,69,0.0,1.0,83,0.00,,,0.00,,2013-09-04 14:42:00,
2013-09-04 09:52:00,75.0,68.0,30.13,ENE,73,0.0,2.0,80,0.00,,,0.00,,2013-09-04 14:52:00,
2013-09-04 10:12:00,77.0,69.0,30.14,East,95,1.0,3.0,76,0.00,,,0.00,,2013-09-04 15:12:00,
2013-09-04 10:22:00,78.0,69.0,30.13,ENE,77,1.0,2.0,74,0.00,,,0.00,,2013-09-04 15:22:00,
2013-09-04 10:43:00,80.0,69.0,30.14,SSW,213,1.0,2.0,69,0.00,,,0.00,,2013-09-04 15:43:00,
2013-09-04 10:53:00,83.0,70.0,30.14,South,186,0.0,1.0,64,0.00,,,0.00,,2013-09-04 15:53:00,
2013-09-04 11:12:00,83.0,68.0,30.14,ENE,77,0.0,3.0,61,0.00,,,0.00,,2013-09-04 16:12:00,
2013-09-04 11:23:00,84.0,67.0,30.14,SW,232,1.0,4.0,57,0.00,,,0.00,,2013-09-04 16:23:00,
2013-09-04 11:43:00,84.0,68.0,30.14,East,82,1.0,4.0,58,0.00,,,0.00,,2013-09-04 16:43:00,
2013-09-04 11:53:00,84.0,67.0,30.14,East,84,3.0,6.0,56,0.00,,,0.00,,2013-09-04 16:53:00,
2013-09-04 12:13:00,83.0,66.0,30.14,ENE,78,4.0,7.0,56,0.00,,,0.00,,2013-09-04 17:13:00,
2013-09-04 12:23:00,84.0,67.0,30.14,East,82,2.0,6.0,56,0.00,,,0.00,,2013-09-04 17:23:00,
2013-09-04 12:42:00,85.0,67.0,30.13,SE,134,0.0,5.0,55,0.00,,,0.00,,2013-09-04 17:42:00,
2013-09-04 12:52:00,86.0,67.0,30.13,ENE,66,2.0,6.0,53,0.00,,,0.00,,2013-09-04 17:52:00,
2013-09-04 13:13:00,86.0,66.0,30.12,ENE,75,0.0,3.0,51,0.00,,,0.00,,2013-09-04 18:13:00,
2013-09-04 13:22:00,87.0,67.0,30.12,East,84,1.0,3.0,52,0.00,,,0.00,,2013-09-04 18:22:00,
2013-09-04 13:42:00,88.0,67.0,30.12,East,83,0.0,3.0,50,0.00,,,0.00,,2013-09-04 18:42:00,
2013-09-04 13:52:00,88.0,66.0,30.12,East,93,1.0,4.0,48,0.00,,,0.00,,2013-09-04 18:52:00,
2013-09-04 14:11:00,86.0,66.0,30.11,NE,52,2.0,9.0,52,0.00,,,0.00,,2013-09-04 19:11:00,
2013-09-04 14:22:00,87.0,67.0,30.11,ESE,107,2.0,5.0,52,0.00,,,0.00,,2013-09-04 19:22:00,
2013-09-04 14:42:00,87.0,65.0,30.10,ENE,75,2.0,7.0,49,0.00,,,0.00,,2013-09-04 19:42:00,
2013-09-04 14:52:00,88.0,66.0,30.10,WSW,243,1.0,4.0,48,0.00,,,0.00,,2013-09-04 19:52:00,
2013-09-04 15:11:00,88.0,66.0,30.09,East,83,0.0,7.0,49,0.00,,,0.00,,2013-09-04 20:11:00,
2013-09-04 15:22:00,88.0,66.0,30.09,East,79,3.0,6.0,48,0.00,,,0.00,,2013-09-04 20:22:00,
2013-09-04 15:43:00,88.0,66.0,30.09,ESE,108,0.0,3.0,49,0.00,,,0.00,,2013-09-04 20:43:00,
2013-09-04 15:53:00,90.0,67.0,30.08,SW,214,0.0,5.0,47,0.00,,,0.00,,2013-09-04 20:53:00,
2013-09-04 16:12:00,90.0,67.0,30.08,SE,136,0.0,2.0,47,0.00,,,0.00,,2013-09-04 21:12:00,
2013-09-04 16:22:00,88.0,65.0,30.08,ENE,59,1.0,6.0,47,0.00,,,0.00,,2013-09-04 21:22:00,
2013-09-04 16:44:00,89.0,67.0,30.08,East,82,0.0,3.0,49,0.00,,,0.00,,2013-09-04 21:44:00,
2013-09-04 16:54:00,90.0,66.0,30.07,ESE,113,0.0,2.0,46,0.00,,,0.00,,2013-09-04 21:54:00,
2013-09-04 17:14:00,89.0,66.0,30.08,ESE,109,0.0,4.0,47,0.00,,,0.00,,2013-09-04 22:14:00,
2013-09-04 17:23:00,89.0,66.0,30.07,SW,229,0.0,3.0,47,0.00,,,0.00,,2013-09-04 22:23:00,
2013-09-04 17:55:00,87.0,65.0,30.07,ESE,109,2.0,7.0,49,0.00,,,0.00,,2013-09-04 22:55:00,
2013-09-04 18:13:00,87.0,66.0,30.07,ESE,105,1.0,2.0,50,0.00,,,0.00,,2013-09-04 23:13:00,
2013-09-04 18:22:00,87.0,66.0,30.07,ESE,103,0.0,2.0,50,0.00,,,0.00,,2013-09-04 23:22:00,
2013-09-04 18:42:00,85.0,66.0,30.07,ESE,105,0.0,2.0,53,0.00,,,0.00,,2013-09-04 23:42:00,
2013-09-04 18:52:00,84.0,66.0,30.07,East,91,0.0,2.0,55,0.00,,,0.00,,2013-09-04 23:52:00,
2013-09-04 19:12:00,82.0,65.0,30.07,ENE,76,0.0,2.0,57,0.00,,,0.00,,2013-09-05 00:12:00,
2013-09-04 19:22:00,81.0,65.0,30.07,East,84,0.0,1.0,59,0.00,,,0.00,,2013-09-05 00:22:00,
2013-09-04 19:42:00,80.0,65.0,30.08,East,96,0.0,1.0,61,0.00,,,0.00,,2013-09-05 00:42:00,
2013-09-04 19:52:00,79.0,65.0,30.08,ESE,102,0.0,0.0,63,0.00,,,0.00,,2013-09-05 00:52:00,
2013-09-04 20:12:00,78.0,65.0,30.09,ESE,102,0.0,0.0,65,0.00,,,0.00,,2013-09-05 01:12:00,
2013-09-04 20:22:00,77.0,66.0,30.09,East,101,0.0,0.0,68,0.00,,,0.00,,2013-09-05 01:22:00,
2013-09-04 20:42:00,76.0,65.0,30.10,ESE,102,0.0,0.0,70,0.00,,,0.00,,2013-09-05 01:42:00,
2013-09-04 20:52:00,75.0,65.0,30.11,East,101,0.0,0.0,72,0.00,,,0.00,,2013-09-05 01:52:00,
2013-09-04 21:12:00,74.0,65.0,30.11,ESE,102,0.0,0.0,74,0.00,,,0.00,,2013-09-05 02:12:00,
2013-09-04 21:22:00,74.0,66.0,30.11,ESE,107,0.0,0.0,75,0.00,,,0.00,,2013-09-05 02:22:00,
2013-09-04 22:12:00,72.0,64.0,30.12,ENE,75,0.0,0.0,77,0.00,,,0.00,,2013-09-05 03:12:00,
2013-09-04 22:22:00,72.0,65.0,30.13,ENE,75,0.0,0.0,78,0.00,,,0.00,,2013-09-05 03:22:00,
2013-09-04 22:45:00,71.0,65.0,30.13,ENE,75,0.0,0.0,80,0.00,,,0.00,,2013-09-05 03:45:00,
2013-09-04 22:54:00,70.0,64.0,30.13,ENE,75,0.0,0.0,81,0.00,,,0.00,,2013-09-05 03:54:00,
2013-09-04 23:13:00,70.0,64.0,30.13,ENE,75,0.0,0.0,82,0.00,,,0.00,,2013-09-05 04:13:00,
2013-09-04 23:24:00,70.0,65.0,30.13,ENE,75,0.0,0.0,83,0.00,,,0.00,,2013-09-05 04:24:00,
2013-09-04 23:44:00,69.0,64.0,30.14,ENE,75,0.0,0.0,83,0.00,,,0.00,,2013-09-05 04:44:00,
2013-09-04 23:53:00,69.0,64.0,30.14,ENE,75,0.0,0.0,85,0.00,,,0.00,,2013-09-05 04:53:00,